createdAt,value
2024-01-16T00:01:03.867Z,70.57
2024-01-16T00:03:45.543Z,69.30
2024-01-16T00:06:14.626Z,69.02
2024-01-16T00:08:43.002Z,69.63
2024-01-16T00:11:11.349Z,68.65
2024-01-16T00:13:39.505Z,69.32
2024-01-16T00:16:07.681Z,69.82
2024-01-16T00:18:38.952Z,70.10
2024-01-16T00:21:06.981Z,70.54
2024-01-16T00:23:34.990Z,70.70
2024-01-16T00:26:03.114Z,71.26
2024-01-16T00:28:35.266Z,70.85
2024-01-16T00:31:09.600Z,70.38
2024-01-16T00:33:37.834Z,71.12
2024-01-16T00:36:06.367Z,71.26
2024-01-16T00:38:35.350Z,71.31
2024-01-16T00:41:03.492Z,71.30
2024-01-16T00:43:32.404Z,71.73
2024-01-16T00:46:00.604Z,71.69
2024-01-16T00:48:28.764Z,71.92
2024-01-16T00:50:57.151Z,72.66
2024-01-16T00:53:25.247Z,73.06
2024-01-16T00:55:55.316Z,72.65
2024-01-16T00:58:23.574Z,72.34
2024-01-16T01:00:51.800Z,73.13
2024-01-16T01:03:19.851Z,73.08
2024-01-16T01:05:48.075Z,72.73
2024-01-16T01:08:16.215Z,73.19
2024-01-16T01:10:44.426Z,73.84
2024-01-16T01:13:12.613Z,74.12
2024-01-16T01:15:40.720Z,74.35
2024-01-16T01:18:08.928Z,74.69
2024-01-16T01:20:37.195Z,75.03
2024-01-16T01:23:05.425Z,74.98
2024-01-16T01:25:33.460Z,74.88
2024-01-16T01:28:01.528Z,74.67
2024-01-16T01:30:29.625Z,74.97
2024-01-16T01:32:57.999Z,74.19
2024-01-16T01:35:26.464Z,74.65
2024-01-16T01:37:54.476Z,74.21
2024-01-16T01:40:22.640Z,74.27
2024-01-16T01:42:50.748Z,74.92
2024-01-16T01:45:18.739Z,74.73
2024-01-16T01:47:47.266Z,74.68
2024-01-16T01:50:15.858Z,74.56
2024-01-16T01:52:45.327Z,74.51
2024-01-16T01:55:15.420Z,73.32
2024-01-16T01:57:44.448Z,74.13
2024-01-16T02:00:13.608Z,73.95
2024-01-16T02:02:43.744Z,73.49
2024-01-16T02:05:12.288Z,73.44
2024-01-16T02:07:40.647Z,73.68
2024-01-16T02:10:09.036Z,73.29
2024-01-16T02:12:37.137Z,73.45
2024-01-16T02:15:06.225Z,74.48
2024-01-16T02:17:34.410Z,74.27
2024-01-16T02:20:02.453Z,74.17
2024-01-16T02:22:34.585Z,73.33
2024-01-16T02:25:02.727Z,73.30
2024-01-16T02:27:30.701Z,73.99
2024-01-16T02:29:58.732Z,73.06
2024-01-16T02:32:26.844Z,72.60
2024-01-16T02:34:54.922Z,73.22
2024-01-16T02:37:24.296Z,73.37
2024-01-16T02:39:52.372Z,73.51
2024-01-16T02:42:20.428Z,73.57
2024-01-16T02:44:48.541Z,73.42
2024-01-16T02:47:16.610Z,73.81
2024-01-16T02:49:44.690Z,73.40
2024-01-16T02:52:12.702Z,73.41
2024-01-16T02:54:40.755Z,73.62
2024-01-16T02:57:08.897Z,73.53
2024-01-16T02:59:37.004Z,73.83
2024-01-16T03:02:05.307Z,73.79
2024-01-16T03:04:33.350Z,74.21
2024-01-16T03:07:01.298Z,74.46
2024-01-16T03:09:29.290Z,74.38
2024-01-16T03:11:57.359Z,74.50
2024-01-16T03:14:25.458Z,74.68
2024-01-16T03:16:53.447Z,74.70
2024-01-16T03:19:21.514Z,74.70
2024-01-16T03:21:50.394Z,74.96
2024-01-16T03:24:18.475Z,74.36
2024-01-16T03:26:46.536Z,74.47
2024-01-16T03:29:14.542Z,74.43
2024-01-16T03:31:42.654Z,74.62
2024-01-16T03:34:11.877Z,74.02
2024-01-16T03:36:40.048Z,74.12
2024-01-16T03:39:08.032Z,74.12
2024-01-16T03:41:36.057Z,74.13
2024-01-16T03:44:04.259Z,74.48
2024-01-16T03:46:32.328Z,74.98
2024-01-16T03:49:00.524Z,74.90
2024-01-16T03:51:28.567Z,75.07
2024-01-16T03:53:56.922Z,75.32
2024-01-16T03:56:25.113Z,75.70
2024-01-16T03:58:53.336Z,76.11
2024-01-16T04:01:34.213Z,75.98
2024-01-16T04:04:03.079Z,76.22
2024-01-16T04:06:32.627Z,76.66
2024-01-16T04:09:00.670Z,77.08
2024-01-16T04:11:28.926Z,77.20
2024-01-16T04:13:57.948Z,77.89
2024-01-16T04:16:26.870Z,77.80
2024-01-16T04:18:55.850Z,78.00
2024-01-16T04:21:24.266Z,77.76
2024-01-16T04:23:52.328Z,77.58
2024-01-16T04:26:20.487Z,77.48
2024-01-16T04:28:49.103Z,77.92
2024-01-16T04:31:19.384Z,78.03
2024-01-16T04:33:47.550Z,78.32
2024-01-16T04:36:18.941Z,77.97
2024-01-16T04:38:47.310Z,77.93
2024-01-16T04:41:20.970Z,77.72
2024-01-16T04:43:51.139Z,77.79
2024-01-16T04:46:19.497Z,77.96
2024-01-16T04:48:47.801Z,77.94
2024-01-16T04:51:15.987Z,77.75
2024-01-16T04:53:44.930Z,79.54
2024-01-16T04:56:13.455Z,79.56
2024-01-16T04:58:41.430Z,78.81
2024-01-16T05:01:09.495Z,78.33
2024-01-16T05:03:37.736Z,78.22
2024-01-16T05:06:17.191Z,78.23
2024-01-16T05:08:45.433Z,78.65
2024-01-16T05:11:13.471Z,78.39
2024-01-16T05:13:41.975Z,78.70
2024-01-16T05:16:14.435Z,78.82
2024-01-16T05:18:45.759Z,78.99
2024-01-16T05:21:14.490Z,78.74
2024-01-16T05:23:42.834Z,78.84
2024-01-16T05:26:14.380Z,78.85
2024-01-16T05:28:42.718Z,79.69
2024-01-16T05:31:10.934Z,80.00
2024-01-16T05:33:42.639Z,79.53
2024-01-16T05:36:12.683Z,79.64
2024-01-16T05:38:42.937Z,79.97
2024-01-16T05:41:11.153Z,79.86
2024-01-16T05:43:42.495Z,79.83
2024-01-16T05:46:12.066Z,82.08
2024-01-16T05:48:40.181Z,80.13
2024-01-16T05:51:13.645Z,80.10
2024-01-16T05:53:43.430Z,80.40
2024-01-16T05:56:12.182Z,80.90
2024-01-16T05:58:44.203Z,80.86
2024-01-16T06:01:14.696Z,82.04
2024-01-16T06:03:46.630Z,83.08
2024-01-16T06:06:14.978Z,83.42
2024-01-16T06:08:46.385Z,81.79
2024-01-16T06:11:15.289Z,82.68
2024-01-16T06:13:46.613Z,82.01
2024-01-16T06:16:15.007Z,82.35
2024-01-16T06:18:44.016Z,83.20
2024-01-16T06:21:13.408Z,82.85
2024-01-16T06:23:41.695Z,83.00
2024-01-16T06:26:10.235Z,84.08
2024-01-16T06:28:39.434Z,82.93
2024-01-16T06:31:07.927Z,82.27
2024-01-16T06:33:36.891Z,84.15
2024-01-16T06:36:08.685Z,84.37
2024-01-16T06:38:40.646Z,84.33
2024-01-16T06:41:08.884Z,84.17
2024-01-16T06:43:37.530Z,83.82
2024-01-16T06:46:07.009Z,83.61
2024-01-16T06:48:38.433Z,83.94
2024-01-16T06:51:06.786Z,84.89
2024-01-16T06:53:36.408Z,83.84
2024-01-16T06:56:10.423Z,84.37
2024-01-16T06:58:38.618Z,84.54
2024-01-16T07:01:06.725Z,84.40
2024-01-16T07:03:35.140Z,86.11
2024-01-16T07:06:04.181Z,87.24
2024-01-16T07:08:32.675Z,86.29
2024-01-16T07:11:00.866Z,86.82
2024-01-16T07:13:29.085Z,86.36
2024-01-16T07:15:57.229Z,86.75
2024-01-16T07:18:25.445Z,87.73
2024-01-16T07:20:53.780Z,87.01
2024-01-16T07:23:22.001Z,88.00
2024-01-16T07:25:50.033Z,87.45
2024-01-16T07:28:18.064Z,88.33
2024-01-16T07:30:46.234Z,88.00
2024-01-16T07:33:14.594Z,87.70
2024-01-16T07:35:45.486Z,87.21
2024-01-16T07:38:13.819Z,86.95
2024-01-16T07:40:42.008Z,87.09
2024-01-16T07:43:10.330Z,87.04
2024-01-16T07:45:38.677Z,87.61
2024-01-16T07:48:07.286Z,87.75
2024-01-16T07:50:35.988Z,87.27
2024-01-16T07:53:04.324Z,88.32
2024-01-16T07:55:32.542Z,88.16
2024-01-16T07:58:00.798Z,88.87
2024-01-16T08:00:28.925Z,88.12
2024-01-16T08:02:57.124Z,86.95
2024-01-16T08:05:29.281Z,87.76
2024-01-16T08:07:58.976Z,86.54
2024-01-16T08:10:27.303Z,87.03
2024-01-16T08:12:55.598Z,85.66
2024-01-16T08:15:23.641Z,87.08
2024-01-16T08:17:51.758Z,84.14
2024-01-16T08:20:19.962Z,86.13
2024-01-16T08:22:48.058Z,84.87
2024-01-16T08:25:16.289Z,85.15
2024-01-16T08:27:45.019Z,85.43
2024-01-16T08:30:14.092Z,82.71
2024-01-16T08:32:42.670Z,82.45
2024-01-16T08:35:10.890Z,75.44
2024-01-16T08:37:38.981Z,75.30
2024-01-16T08:40:08.013Z,75.49
2024-01-16T08:42:36.280Z,74.91
2024-01-16T08:45:04.926Z,72.35
2024-01-16T08:47:33.049Z,74.40
2024-01-16T08:50:01.155Z,75.06
2024-01-16T08:52:29.254Z,67.27
2024-01-16T08:54:57.345Z,71.35
2024-01-16T08:57:27.153Z,65.85
2024-01-16T08:59:56.944Z,65.88
2024-01-16T09:02:30.353Z,67.20
2024-01-16T09:05:00.072Z,64.18
2024-01-16T09:07:28.877Z,65.62
2024-01-16T09:09:57.102Z,63.04
2024-01-16T09:12:25.498Z,67.96
2024-01-16T09:14:53.673Z,68.76
2024-01-16T09:17:22.273Z,69.77
2024-01-16T09:19:50.301Z,67.59
2024-01-16T09:22:19.379Z,59.72
2024-01-16T09:24:47.480Z,64.99
2024-01-16T09:27:17.752Z,65.16
2024-01-16T09:29:45.940Z,64.93
2024-01-16T09:32:14.430Z,64.88
2024-01-16T09:34:42.646Z,66.74
2024-01-16T09:37:10.821Z,67.48
2024-01-16T09:39:39.275Z,65.41
2024-01-16T09:42:07.377Z,67.21
2024-01-16T09:44:36.067Z,69.04
2024-01-16T09:47:06.301Z,67.98
2024-01-16T09:49:34.490Z,67.29
2024-01-16T09:52:03.667Z,69.15
2024-01-16T09:54:31.764Z,68.18
2024-01-16T09:57:00.959Z,65.74
2024-01-16T09:59:32.225Z,66.32
2024-01-16T10:02:02.375Z,61.87
2024-01-16T10:04:31.494Z,62.77
2024-01-16T10:07:05.364Z,64.37
2024-01-16T10:09:33.739Z,64.32
2024-01-16T10:12:04.774Z,66.41
2024-01-16T10:14:34.401Z,60.55
2024-01-16T10:17:07.486Z,58.98
2024-01-16T10:19:49.253Z,60.48
2024-01-16T10:22:26.916Z,61.10
2024-01-16T10:25:10.258Z,57.75
2024-01-16T10:27:44.761Z,57.98
2024-01-16T10:30:14.000Z,57.36
2024-01-16T10:32:43.935Z,61.22
2024-01-16T10:35:19.260Z,61.92
2024-01-16T10:37:47.405Z,61.39
2024-01-16T10:40:17.948Z,62.65
2024-01-16T10:42:47.655Z,60.80
2024-01-16T10:45:20.355Z,62.14
2024-01-16T10:47:48.952Z,61.94
2024-01-16T10:50:17.316Z,62.41
2024-01-16T10:52:52.950Z,62.69
2024-01-16T10:55:23.580Z,63.94
2024-01-16T10:57:53.182Z,63.85
2024-01-16T11:00:23.006Z,64.26
2024-01-16T11:03:01.663Z,60.39
2024-01-16T11:05:33.137Z,60.02
2024-01-16T11:08:07.575Z,57.79
2024-01-16T11:10:37.610Z,59.64
2024-01-16T11:13:06.560Z,59.64
2024-01-16T11:15:35.027Z,57.58
2024-01-16T11:18:06.100Z,59.73
2024-01-16T11:20:55.509Z,61.50
2024-01-16T11:23:25.316Z,61.58
2024-01-16T11:25:53.557Z,62.09
2024-01-16T11:28:21.696Z,61.45
2024-01-16T11:30:49.786Z,61.53
2024-01-16T11:33:33.544Z,60.96
2024-01-16T11:36:03.040Z,61.45
2024-01-16T11:38:35.289Z,60.19
2024-01-16T11:41:03.458Z,61.23
2024-01-16T11:43:35.086Z,60.75
2024-01-16T11:46:08.867Z,60.54
2024-01-16T11:48:39.970Z,58.44
2024-01-16T11:51:28.721Z,58.37
2024-01-16T11:53:56.799Z,58.01
2024-01-16T11:56:50.056Z,59.44
2024-01-16T11:59:57.075Z,59.51
2024-01-16T12:02:31.042Z,60.32
2024-01-16T12:05:04.455Z,58.83
2024-01-16T12:07:55.517Z,60.34
2024-01-16T12:10:25.281Z,60.12
2024-01-16T12:13:02.745Z,60.40
2024-01-16T12:15:33.308Z,60.35
2024-01-16T12:18:02.993Z,59.33
2024-01-16T12:20:33.704Z,61.34
2024-01-16T12:23:07.040Z,59.39
2024-01-16T12:26:00.929Z,59.71
2024-01-16T12:28:32.623Z,58.66
2024-01-16T12:31:04.586Z,58.88
2024-01-16T12:33:33.302Z,58.84
2024-01-16T12:36:04.557Z,59.07
2024-01-16T12:38:33.161Z,59.71
2024-01-16T12:41:03.871Z,58.70
2024-01-16T12:43:34.349Z,59.21
2024-01-16T12:46:02.650Z,59.93
2024-01-16T12:48:31.306Z,59.80
2024-01-16T12:51:05.253Z,61.15
2024-01-16T12:53:38.115Z,60.35
2024-01-16T12:56:07.576Z,60.85
2024-01-16T12:58:37.239Z,60.24
2024-01-16T13:01:35.095Z,59.72
2024-01-16T13:04:09.066Z,60.34
2024-01-16T13:06:38.796Z,60.37
2024-01-16T13:09:17.140Z,61.48
2024-01-16T13:11:47.803Z,61.39
2024-01-16T13:14:16.036Z,61.03
2024-01-16T13:16:44.119Z,62.48
2024-01-16T13:19:12.592Z,62.51
2024-01-16T13:21:40.829Z,62.73
2024-01-16T13:24:09.577Z,62.62
2024-01-16T13:26:38.657Z,62.99
2024-01-16T13:29:10.560Z,63.37
2024-01-16T13:31:38.560Z,62.52
2024-01-16T13:34:06.677Z,62.77
2024-01-16T13:36:53.095Z,63.12
2024-01-16T13:39:22.801Z,60.32
2024-01-16T13:41:50.955Z,61.71
2024-01-16T13:44:18.987Z,60.55
2024-01-16T13:46:57.970Z,60.21
2024-01-16T13:49:35.194Z,60.11
2024-01-16T13:52:04.459Z,59.09
2024-01-16T13:54:32.839Z,58.96
2024-01-16T13:57:06.814Z,60.02
2024-01-16T13:59:38.449Z,59.73
2024-01-16T14:02:07.477Z,60.24
2024-01-16T14:04:35.588Z,61.14
2024-01-16T14:07:12.266Z,61.12
2024-01-16T14:09:44.910Z,62.12
2024-01-16T14:12:15.491Z,62.05
2024-01-16T14:14:44.275Z,62.80
2024-01-16T14:17:12.915Z,63.08
2024-01-16T14:19:41.289Z,63.56
2024-01-16T14:22:09.420Z,63.75
2024-01-16T14:24:39.125Z,64.34
2024-01-16T14:27:08.366Z,64.28
2024-01-16T14:29:39.159Z,64.43
2024-01-16T14:32:07.280Z,65.51
2024-01-16T14:34:35.497Z,65.36
2024-01-16T14:37:05.048Z,65.20
2024-01-16T14:39:33.238Z,66.93
2024-01-16T14:42:01.644Z,66.54
2024-01-16T14:44:31.082Z,66.03
2024-01-16T14:46:59.959Z,66.53
2024-01-16T14:49:33.003Z,66.45
2024-01-16T14:52:02.874Z,66.83
2024-01-16T14:54:31.088Z,66.93
2024-01-16T14:56:59.341Z,68.12
2024-01-16T14:59:27.587Z,67.79
2024-01-16T15:01:55.900Z,70.78
2024-01-16T15:04:23.989Z,68.21
2024-01-16T15:06:54.365Z,70.13
2024-01-16T15:09:22.922Z,71.30
2024-01-16T15:11:51.376Z,69.85
2024-01-16T15:14:19.487Z,69.76
2024-01-16T15:16:47.779Z,68.69
2024-01-16T15:19:16.265Z,70.61
2024-01-16T15:21:44.361Z,70.23
2024-01-16T15:24:20.882Z,71.39
2024-01-16T15:26:49.046Z,71.28
2024-01-16T15:29:17.377Z,70.91
2024-01-16T15:31:45.416Z,69.32
2024-01-16T15:34:16.792Z,68.88
2024-01-16T15:36:48.572Z,70.12
2024-01-16T15:39:20.139Z,73.98
2024-01-16T15:41:48.181Z,76.50
2024-01-16T15:44:16.395Z,77.58
2024-01-16T15:47:00.945Z,75.18
2024-01-16T15:49:32.514Z,74.40
2024-01-16T15:52:00.714Z,72.15
2024-01-16T15:54:31.601Z,73.66
2024-01-16T15:57:00.060Z,74.73
2024-01-16T15:59:28.420Z,76.51
2024-01-16T16:01:56.528Z,75.43
2024-01-16T16:04:25.012Z,75.34
2024-01-16T16:06:53.419Z,74.05
2024-01-16T16:09:22.015Z,74.32
2024-01-16T16:11:53.045Z,77.05
2024-01-16T16:14:21.379Z,76.10
2024-01-16T16:16:51.129Z,74.21
2024-01-16T16:19:19.503Z,72.94
2024-01-16T16:21:50.416Z,72.57
2024-01-16T16:24:20.069Z,72.83
2024-01-16T16:26:48.492Z,73.02
2024-01-16T16:29:16.679Z,72.67
2024-01-16T16:31:44.700Z,72.17
2024-01-16T16:34:16.264Z,72.74
2024-01-16T16:36:45.845Z,72.88
2024-01-16T16:39:17.991Z,74.48
2024-01-16T16:41:48.023Z,74.73
2024-01-16T16:44:16.537Z,80.61
2024-01-16T16:46:44.697Z,80.68
2024-01-16T16:49:12.839Z,78.62
2024-01-16T16:51:43.435Z,77.24
2024-01-16T16:54:12.532Z,75.92
2024-01-16T16:56:45.607Z,77.04
2024-01-16T16:59:13.860Z,77.75
2024-01-16T17:01:41.864Z,76.77
2024-01-16T17:04:10.095Z,78.11
2024-01-16T17:06:38.645Z,77.91
2024-01-16T17:09:08.244Z,76.45
2024-01-16T17:11:36.566Z,78.19
2024-01-16T17:14:05.139Z,77.59
2024-01-16T17:16:33.442Z,77.31
2024-01-16T17:19:01.766Z,77.97
2024-01-16T17:21:30.195Z,80.69
2024-01-16T17:24:01.233Z,79.42
2024-01-16T17:26:31.047Z,78.47
2024-01-16T17:29:01.820Z,77.87
2024-01-16T17:31:30.596Z,78.79
2024-01-16T17:33:59.159Z,76.70
2024-01-16T17:36:30.129Z,75.42
2024-01-16T17:39:01.439Z,77.70
2024-01-16T17:41:31.168Z,77.75
2024-01-16T17:43:59.765Z,78.64
2024-01-16T17:46:28.209Z,80.00
2024-01-16T17:48:57.894Z,77.94
2024-01-16T17:51:26.738Z,78.22
2024-01-16T17:53:55.041Z,77.99
2024-01-16T17:56:25.313Z,79.35
2024-01-16T17:58:55.491Z,77.39
2024-01-16T18:01:23.488Z,77.12
2024-01-16T18:03:53.022Z,78.07
2024-01-16T18:06:23.291Z,77.79
2024-01-16T18:08:52.933Z,78.24
2024-01-16T18:11:21.472Z,78.29
2024-01-16T18:13:49.687Z,78.57
2024-01-16T18:16:18.769Z,78.19
2024-01-16T18:18:47.294Z,78.54
2024-01-16T18:21:15.914Z,77.46
2024-01-16T18:23:48.442Z,77.60
2024-01-16T18:26:16.617Z,77.80
2024-01-16T18:28:44.831Z,78.60
2024-01-16T18:31:19.854Z,78.15
2024-01-16T18:33:50.601Z,81.20
2024-01-16T18:36:22.436Z,80.85
2024-01-16T18:38:51.480Z,81.59
2024-01-16T18:41:20.014Z,81.40
2024-01-16T18:43:53.893Z,80.37
2024-01-16T18:46:24.292Z,79.85
2024-01-16T18:48:52.693Z,80.52
2024-01-16T18:51:22.783Z,80.60
2024-01-16T18:53:51.044Z,79.78
2024-01-16T18:56:19.397Z,80.21
2024-01-16T18:58:47.494Z,81.34
2024-01-16T19:01:15.680Z,82.68
2024-01-16T19:03:43.944Z,81.69
2024-01-16T19:06:15.844Z,82.34
2024-01-16T19:08:44.702Z,84.02
2024-01-16T19:11:13.369Z,81.70
2024-01-16T19:13:42.843Z,80.53
2024-01-16T19:16:12.679Z,81.05
2024-01-16T19:18:44.116Z,81.23
2024-01-16T19:21:13.234Z,81.41
2024-01-16T19:23:41.231Z,81.17
2024-01-16T19:26:09.736Z,81.17
2024-01-16T19:28:37.869Z,82.09
2024-01-16T19:31:06.403Z,82.20
2024-01-16T19:33:34.827Z,81.95
2024-01-16T19:36:05.234Z,80.82
2024-01-16T19:38:37.131Z,81.22
2024-01-16T19:41:06.702Z,82.62
2024-01-16T19:43:38.634Z,81.97
2024-01-16T19:46:07.049Z,80.98
2024-01-16T19:48:41.057Z,82.10
2024-01-16T19:51:12.796Z,81.17
2024-01-16T19:53:41.598Z,81.25
2024-01-16T19:56:10.280Z,81.23
2024-01-16T19:58:39.063Z,81.63
2024-01-16T20:01:10.428Z,82.09
2024-01-16T20:03:42.324Z,82.48
2024-01-16T20:06:13.426Z,82.29
2024-01-16T20:08:41.674Z,82.94
2024-01-16T20:11:09.732Z,81.96
2024-01-16T20:13:38.010Z,82.24
2024-01-16T20:16:10.557Z,81.67
2024-01-16T20:18:46.097Z,81.53
2024-01-16T20:21:14.474Z,82.00
2024-01-16T20:23:42.709Z,82.38
2024-01-16T20:26:10.709Z,81.97
2024-01-16T20:28:38.787Z,83.31
2024-01-16T20:31:08.492Z,84.37
2024-01-16T20:33:38.200Z,85.54
2024-01-16T20:36:06.585Z,86.89
2024-01-16T20:38:34.807Z,87.09
2024-01-16T20:41:03.256Z,88.88
2024-01-16T20:43:31.425Z,90.01
2024-01-16T20:46:02.253Z,89.57
2024-01-16T20:48:30.816Z,91.52
2024-01-16T20:50:59.868Z,92.59
2024-01-16T20:53:29.513Z,93.67
2024-01-16T20:55:57.828Z,91.95
2024-01-16T20:58:25.945Z,92.83
2024-01-16T21:00:54.460Z,92.92
2024-01-16T21:03:26.092Z,96.42
2024-01-16T21:05:57.080Z,96.01
2024-01-16T21:08:25.403Z,96.28
2024-01-16T21:10:53.638Z,96.14
2024-01-16T21:13:24.578Z,95.88
2024-01-16T21:15:53.188Z,97.22
2024-01-16T21:18:21.591Z,97.31
2024-01-16T21:20:50.707Z,98.01
2024-01-16T21:23:18.865Z,99.12
2024-01-16T21:25:47.033Z,99.43
2024-01-16T21:28:15.366Z,99.73
2024-01-16T21:30:43.852Z,100.00
2024-01-16T21:33:15.129Z,99.86
2024-01-16T21:35:43.752Z,100.00
2024-01-16T21:38:12.924Z,100.00
2024-01-16T21:40:41.347Z,100.00
2024-01-16T21:43:09.754Z,100.00
2024-01-16T21:45:37.972Z,100.00
2024-01-16T21:48:06.744Z,100.00
2024-01-16T21:50:38.425Z,100.00
2024-01-16T21:53:07.302Z,100.00
2024-01-16T21:55:35.392Z,100.00
2024-01-16T21:58:04.044Z,100.00
2024-01-16T22:00:35.069Z,100.00
2024-01-16T22:03:05.783Z,100.00
2024-01-16T22:05:36.222Z,100.00
2024-01-16T22:08:08.386Z,100.00
2024-01-16T22:10:40.504Z,100.00
2024-01-16T22:13:15.301Z,100.00
2024-01-16T22:15:47.463Z,100.00
2024-01-16T22:18:18.836Z,100.00
2024-01-16T22:20:47.527Z,100.00
2024-01-16T22:23:16.435Z,100.00
2024-01-16T22:25:44.530Z,100.00
2024-01-16T22:28:13.907Z,100.00
2024-01-16T22:30:42.298Z,100.00
2024-01-16T22:33:10.566Z,100.00
2024-01-16T22:35:39.514Z,100.00
2024-01-16T22:38:07.519Z,100.00
2024-01-16T22:40:37.862Z,100.00
2024-01-16T22:43:06.912Z,100.00
2024-01-16T22:45:35.014Z,100.00
2024-01-16T22:48:06.680Z,100.00
2024-01-16T22:50:35.661Z,100.00
2024-01-16T22:53:03.990Z,100.00
2024-01-16T22:55:32.038Z,100.00
2024-01-16T22:58:06.257Z,100.00
2024-01-16T23:00:40.380Z,100.00
2024-01-16T23:03:11.131Z,100.00
2024-01-16T23:05:45.330Z,100.00
2024-01-16T23:08:14.849Z,100.00
2024-01-16T23:10:43.154Z,100.00
2024-01-16T23:13:11.237Z,100.00
2024-01-16T23:15:39.539Z,100.00
2024-01-16T23:18:07.941Z,100.00
2024-01-16T23:20:36.031Z,100.00
2024-01-16T23:26:27.300Z,100.00
2024-01-16T23:28:56.781Z,100.00
2024-01-16T23:31:24.766Z,100.00
2024-01-16T23:33:52.954Z,100.00
2024-01-16T23:36:21.023Z,100.00
2024-01-16T23:38:49.023Z,100.00
2024-01-16T23:41:19.329Z,100.00
2024-01-16T23:43:47.329Z,100.00
2024-01-16T23:46:15.338Z,100.00
2024-01-16T23:48:45.623Z,100.00
2024-01-16T23:51:14.852Z,100.00
2024-01-16T23:53:42.920Z,100.00
2024-01-16T23:56:12.649Z,100.00
2024-01-16T23:58:40.766Z,100.00
